Terminal Aerodrome Forecast
Issued by NWS Louisville, KY

Home | Current Version | Previous Version | Text Only | Print | Product List | Glossary On
Versions: 1 2 3 4 5 6 7 8 9 10 11 12 13 14 15
000
FTUS43 KLMK 010743 AAA
TAFSDF
TAF AMD
KSDF 010743Z 0108/0212 VRB06KT P6SM BKN014
      TEMPO 0108/0109 VRB06KT 3SM -TSRA BKN025CB
     FM011000 20004KT 6SM BR SCT015 BKN100
     FM011400 24008KT P6SM SCT025 BKN035 PROB30 0119/0123 5SM TSRA
      BKN030CB
     FM020000 23007KT P6SM BKN060=

USA.gov is the U.S. government's official web portal to all federal, state and local government web resources and services.